الصفحة الرئيسية
METAR-TAF:

METAR-TAF

مطار :

مطار بروكسل الدولي

بروكسل, بلجيكا

دائرة عرض: 50-54N, خط طول: 004-32E, ارتفاع: 55 متر

مراقبة الطقس الحالي

تاريخ ووقت الإصدار 29 دقيقة قبل الساعة 00:20UTC
ريح 5 عقدة من الغرب/الجنوب الغربي, الاتجاه يتراوح بين الجنوب و الشمال الغربي
درجة الحرارة 14°درجة مئوية
الرطوبة 77%
ضغط 1018 hPa
الرؤية 10 كم أو أكثر
الغيوم لا تقل 1500 م ولا وجود لمزنة ركامية السحاب الأسود

METAR: EBBR 170020Z 25005KT 190V310 CAVOK 14/10 Q1018 NOSIG

زمن: 02:49 (00:49 UTC)

توقعات

تاريخ ووقت الإصدار 1ساعة و 6 دقيقة قبل الساعة 23:43UTC
التوقعات صالحة من17 الساعة 00 UTC إلى 18 الساعة 06 UTC
ريح 2 عقدةمن اتجاهات متغيرة
الرؤية: 8000 متر
مؤقت
من 17 الساعة 03 UTC إلى 17 الساعة 08 UTC
الرؤية: 3000 متر
غشاء
نظرية الاحتمالات 30% :
مؤقت
من 17 الساعة 04 UTC إلى 17 الساعة 07 UTC
الرؤية: 1200 متر
غيوم مفككة على ارتفاع 200 قدم
رقع من الضباب
نظرية الاحتمالات 40% :
مؤقت
من 18 الساعة 02 UTC إلى 18 الساعة 06 UTC
الرؤية: 4000 متر
غشاء

TAF: EBBR 162343Z 1700/1806 VRB02KT 8000 NSC TEMPO 1703/1708 3000 BR PROB30 TEMPO 1704/1707 1200 BCFG BKN002 PROB40 TEMPO 1802/1806 4000 BR

أرصاد الطقس والتوقعات من أكثر من 4000 مطار (تقارير الطقس للمطار METAR والتنبؤ بالطقس بالمطارTAF).

المحطات المتاحة هي النقط الصفراء والحمراء على الخريطة.

حرك المؤشر فوق النقطة لمعرفة اسم المحطة.

ثم انقر لمعرفة أرصاد وتوقعات الطقس.

لتغيير الخارطة: اضغط على الأزرار الخضراء مع رمز الصليب الأسود للتكبير. على الزر الأخضر مع شرطة للتصغير، أو على الأسهم الخضراء للخرائط المجاورة.


METAR-TAF: